Pagina principale
METAR-TAF:

METAR-TAF

Aeroporti :

La Chaux-de-Fonds, Svizzera

latitudine: 47-05-03N, longitudine: 006-47-37E, altezza: 1027 m

Osservazione

Il bollettino è stato emesso 35 minuti fa, alle 15:20 UTC
Vento 5 kt da direzioni variabili
Temperature 20°C
Umidità 73%
Pressione 1024 hPa
Visibilità 10 km o più
Nuvoloso ad un'altezza di 1800 ft
Nuvoloso ad un'altezza di 2300 ft

METAR: LSGC 231520Z VRB05KT 9999 BKN018 BKN023 20/15 Q1024

Ora: 17:55 (15:55 UTC)

Previsione

Il bollettino è stato emesso 1 ora e 30 minuti fa, alle 14:25 UTC
Previsione valida dal 23 alle 15 UTC al 23 alle 24 UTC
Vento 6 kt da ovest/sud-ovest
Visibilità 10 km o più
Nubi sparse ad un'altezza di 2000 ft
Nuvoloso ad un'altezza di 3000 ft
Probabilità 30% :
Temporaneamente
dal 23 alle 18 UTC al 23 alle 24 UTC
Nuvoloso ad un'altezza di 1400 ft

TAF: LSGC 231425Z 2315/2324 25006KT 9999 SCT020 BKN030 PROB30 TEMPO 2318/2324 BKN014

Osservazioni e previsioni meteorologiche di più di 4000 aeroporti (messaggi METAR e TAF).

Le stazioni disponibili sono rappresentate dai dischi gialli e rossi sulla carta.

Puntare il mouse per vedere il nome della stazione.

Clicca sopra per visualizzare le osservazioni e previsioni meteorologiche.

Per cambiare la mappa : fare clic sui pulsanti verdi con una croce nera per ingrandire, il pulsante verde con un trattino per diminuire, o sulla freccia verde per le mappe adiacenti.


METAR-TAF: